createdAt,value
2019-03-08T00:02:11.808Z,32.67
2019-03-08T00:04:38.996Z,38.60
2019-03-08T00:07:07.483Z,125.00
2019-03-08T00:09:34.528Z,95.00
2019-03-08T00:12:01.577Z,51.57
2019-03-08T00:14:28.727Z,163.80
2019-03-08T00:16:55.781Z,47.43
2019-03-08T00:19:22.840Z,61.03
2019-03-08T00:21:50.390Z,50.53
2019-03-08T00:24:17.436Z,20.87
2019-03-08T00:26:44.621Z,55.73
2019-03-08T00:29:11.632Z,67.13
2019-03-08T00:31:38.687Z,26.20
2019-03-08T00:34:05.729Z,98.43
2019-03-08T00:36:32.778Z,21.83
2019-03-08T00:38:59.837Z,58.97
2019-03-08T00:41:27.137Z,82.93
2019-03-08T00:43:54.248Z,69.50
2019-03-08T00:46:21.284Z,25.80
2019-03-08T00:48:48.742Z,63.30
2019-03-08T00:51:15.786Z,52.00
2019-03-08T00:53:42.844Z,36.13
2019-03-08T00:56:10.044Z,44.23
2019-03-08T00:58:37.040Z,30.63
2019-03-08T01:01:05.210Z,54.23
2019-03-08T01:03:32.262Z,36.87
2019-03-08T01:06:00.125Z,48.67
2019-03-08T01:08:28.915Z,65.73
2019-03-08T01:10:55.963Z,45.37
2019-03-08T01:13:23.016Z,35.97
2019-03-08T01:15:50.060Z,77.37
2019-03-08T01:18:17.144Z,63.70
2019-03-08T01:20:44.362Z,121.87
2019-03-08T01:23:11.366Z,104.57
2019-03-08T01:25:38.357Z,104.40
2019-03-08T01:28:06.326Z,159.73
2019-03-08T01:30:33.393Z,172.97
2019-03-08T01:33:01.453Z,119.57
2019-03-08T01:35:28.497Z,161.93
2019-03-08T01:37:56.468Z,173.43
2019-03-08T01:40:23.520Z,258.63
2019-03-08T01:42:50.563Z,257.50
2019-03-08T01:45:17.716Z,141.00
2019-03-08T01:47:45.480Z,210.77
2019-03-08T01:50:12.528Z,203.00
2019-03-08T01:52:39.681Z,332.40
2019-03-08T01:55:06.738Z,298.30
2019-03-08T01:57:33.885Z,142.37
2019-03-08T02:00:00.928Z,266.80
2019-03-08T02:02:28.079Z,255.43
2019-03-08T02:04:55.148Z,294.67
2019-03-08T02:07:22.185Z,191.43
2019-03-08T02:09:50.152Z,79.53
2019-03-08T02:12:19.346Z,90.37
2019-03-08T02:14:46.401Z,92.87
2019-03-08T02:17:13.447Z,78.67
2019-03-08T02:19:40.702Z,70.97
2019-03-08T02:22:07.744Z,100.20
2019-03-08T02:24:34.792Z,85.97
2019-03-08T02:27:03.535Z,109.93
2019-03-08T02:29:30.939Z,120.50
2019-03-08T02:31:58.497Z,157.37
2019-03-08T02:34:25.562Z,113.73
2019-03-08T02:36:55.273Z,123.17
2019-03-08T02:39:22.332Z,108.83
2019-03-08T02:41:51.203Z,77.47
2019-03-08T02:44:18.246Z,75.80
2019-03-08T02:46:45.295Z,71.03
2019-03-08T02:49:12.864Z,107.43
2019-03-08T02:51:39.904Z,136.10
2019-03-08T02:54:06.958Z,116.27
2019-03-08T02:56:34.921Z,100.53
2019-03-08T02:59:01.971Z,86.30
2019-03-08T03:01:29.025Z,92.43
2019-03-08T03:03:56.116Z,116.33
2019-03-08T03:06:23.219Z,88.73
2019-03-08T03:08:50.278Z,118.30
2019-03-08T03:11:17.726Z,151.37
2019-03-08T03:13:44.779Z,115.00
2019-03-08T03:16:11.823Z,100.93
2019-03-08T03:18:38.878Z,174.07
2019-03-08T03:21:05.925Z,124.77
2019-03-08T03:23:32.968Z,216.80
2019-03-08T03:26:00.017Z,376.13
2019-03-08T03:28:28.499Z,272.30
2019-03-08T03:30:55.651Z,218.30
2019-03-08T03:33:22.705Z,334.13
2019-03-08T03:35:49.753Z,174.70
2019-03-08T03:38:16.799Z,266.10
2019-03-08T03:40:43.843Z,232.37
2019-03-08T03:43:10.995Z,120.30
2019-03-08T03:45:38.049Z,43.33
2019-03-08T03:48:05.200Z,53.43
2019-03-08T03:50:32.244Z,81.83
2019-03-08T03:52:59.291Z,88.23
2019-03-08T03:55:26.311Z,128.33
2019-03-08T03:57:53.339Z,127.80
2019-03-08T04:00:20.431Z,135.77
2019-03-08T04:02:48.994Z,159.73
2019-03-08T04:05:18.344Z,88.07
2019-03-08T04:07:45.418Z,79.73
2019-03-08T04:10:13.412Z,61.10
2019-03-08T04:12:40.470Z,236.33
2019-03-08T04:15:07.623Z,240.97
2019-03-08T04:17:34.560Z,125.17
2019-03-08T04:20:01.710Z,120.33
2019-03-08T04:22:28.784Z,55.27
2019-03-08T04:24:55.916Z,227.27
2019-03-08T04:27:22.956Z,142.87
2019-03-08T04:29:50.005Z,68.47
2019-03-08T04:32:17.058Z,112.23
2019-03-08T04:34:44.102Z,107.23
2019-03-08T04:37:11.164Z,34.17
2019-03-08T04:39:38.204Z,105.73
2019-03-08T04:42:05.248Z,51.13
2019-03-08T04:44:32.300Z,66.90
2019-03-08T04:46:59.447Z,98.37
2019-03-08T04:49:26.502Z,129.57
2019-03-08T04:51:53.546Z,242.70
2019-03-08T04:54:20.694Z,71.77
2019-03-08T04:56:47.744Z,78.10
2019-03-08T04:59:14.998Z,173.27
2019-03-08T05:01:42.046Z,274.43
2019-03-08T05:04:09.198Z,180.20
2019-03-08T05:07:01.143Z,181.20
2019-03-08T05:09:28.176Z,194.70
2019-03-08T05:11:55.225Z,103.37
2019-03-08T05:14:22.280Z,129.53
2019-03-08T05:16:49.334Z,162.37
2019-03-08T05:19:16.370Z,93.07
2019-03-08T05:21:45.112Z,121.00
2019-03-08T05:24:13.956Z,105.27
2019-03-08T05:26:41.040Z,107.30
2019-03-08T05:29:09.994Z,107.77
2019-03-08T05:31:37.046Z,164.60
2019-03-08T05:34:04.191Z,141.80
2019-03-08T05:36:31.247Z,54.53
2019-03-08T05:38:58.416Z,40.67
2019-03-08T05:41:25.441Z,92.90
2019-03-08T05:43:54.599Z,109.57
2019-03-08T05:46:21.637Z,35.73
2019-03-08T05:48:50.579Z,49.87
2019-03-08T05:51:17.629Z,69.93
2019-03-08T05:53:44.681Z,36.77
2019-03-08T05:56:14.508Z,20.37
2019-03-08T05:58:41.537Z,25.43
2019-03-08T06:01:08.538Z,22.33
2019-03-08T06:03:35.637Z,21.30
2019-03-08T06:06:02.683Z,28.63
2019-03-08T06:08:29.738Z,31.93
2019-03-08T06:10:56.889Z,41.93
2019-03-08T06:13:23.937Z,31.40
2019-03-08T06:15:51.087Z,25.90
2019-03-08T06:18:19.816Z,27.73
2019-03-08T06:20:46.819Z,20.03
2019-03-08T06:23:16.131Z,28.33
2019-03-08T06:25:43.282Z,43.13
2019-03-08T06:28:15.133Z,111.20
2019-03-08T06:30:42.185Z,163.20
2019-03-08T06:33:09.236Z,52.70
2019-03-08T06:35:36.279Z,55.60
2019-03-08T06:38:04.004Z,31.50
2019-03-08T06:40:31.099Z,57.83
2019-03-08T06:42:58.147Z,83.57
2019-03-08T06:45:25.702Z,62.37
2019-03-08T06:47:56.142Z,83.13
2019-03-08T06:50:24.764Z,58.40
2019-03-08T06:52:51.975Z,62.57
2019-03-08T06:55:19.125Z,76.23
2019-03-08T06:57:46.136Z,71.97
2019-03-08T07:00:35.129Z,44.50
2019-03-08T07:03:02.240Z,54.53
2019-03-08T07:05:29.439Z,42.07
2019-03-08T07:07:56.479Z,151.57
2019-03-08T07:10:24.456Z,37.50
2019-03-08T07:13:02.558Z,73.30
2019-03-08T07:15:20.698Z,158.93
2019-03-08T07:17:47.751Z,133.43
2019-03-08T07:20:29.667Z,84.70
2019-03-08T07:23:12.407Z,130.70
2019-03-08T07:25:58.662Z,30.10
2019-03-08T07:28:27.965Z,101.00
2019-03-08T07:31:03.917Z,52.27
2019-03-08T07:33:32.503Z,82.13
2019-03-08T07:35:59.651Z,145.00
2019-03-08T07:38:33.585Z,47.70
2019-03-08T07:41:01.271Z,148.00
2019-03-08T07:43:30.241Z,104.03
2019-03-08T07:46:15.501Z,76.30
2019-03-08T07:48:45.424Z,69.77
2019-03-08T07:51:31.812Z,80.33
2019-03-08T07:54:02.037Z,123.03
2019-03-08T07:56:32.771Z,128.33
2019-03-08T07:59:03.609Z,67.13
2019-03-08T08:01:51.452Z,121.83
2019-03-08T08:04:23.412Z,75.07
2019-03-08T08:06:52.096Z,56.53
2019-03-08T08:09:19.246Z,79.53
2019-03-08T08:11:47.162Z,134.63
2019-03-08T08:14:17.138Z,14.37
2019-03-08T08:16:59.131Z,56.90
2019-03-08T08:19:32.944Z,20.27
2019-03-08T08:22:04.901Z,27.60
2019-03-08T08:24:33.589Z,28.03
2019-03-08T08:27:00.741Z,34.00
2019-03-08T08:29:35.379Z,26.10
2019-03-08T08:32:05.082Z,50.43
2019-03-08T08:34:32.850Z,27.80
2019-03-08T08:36:59.995Z,22.10
2019-03-08T08:39:28.079Z,17.53
2019-03-08T08:42:00.849Z,28.73
2019-03-08T08:45:04.499Z,40.73
2019-03-08T08:47:44.815Z,19.47
2019-03-08T08:50:25.698Z,25.57
2019-03-08T08:52:53.767Z,20.70
2019-03-08T08:55:22.347Z,19.40
2019-03-08T08:57:49.605Z,22.87
2019-03-08T09:00:22.381Z,22.03
2019-03-08T09:03:19.317Z,22.07
2019-03-08T09:06:18.040Z,33.13
2019-03-08T09:09:02.689Z,23.23
2019-03-08T09:11:44.185Z,23.77
2019-03-08T09:14:09.684Z,26.87
2019-03-08T09:16:53.633Z,24.10
2019-03-08T09:19:23.442Z,22.53
2019-03-08T09:21:54.860Z,26.27
2019-03-08T09:24:23.844Z,22.40
2019-03-08T09:26:51.148Z,27.70
2019-03-08T09:29:18.916Z,30.87
2019-03-08T09:31:51.291Z,26.23
2019-03-08T09:34:19.761Z,32.63
2019-03-08T09:37:03.634Z,27.80
2019-03-08T09:39:47.345Z,34.70
2019-03-08T09:42:18.801Z,37.23
2019-03-08T09:44:51.993Z,28.00
2019-03-08T09:47:19.144Z,32.70
2019-03-08T09:49:58.274Z,32.90
2019-03-08T09:52:40.589Z,21.97
2019-03-08T09:55:28.840Z,28.77
2019-03-08T09:57:56.077Z,29.40
2019-03-08T10:00:39.828Z,29.17
2019-03-08T10:03:12.496Z,31.57
2019-03-08T10:06:00.845Z,21.27
2019-03-08T10:08:44.693Z,26.73
2019-03-08T10:11:17.792Z,29.40
2019-03-08T10:13:46.782Z,27.33
2019-03-08T10:16:23.858Z,26.07
2019-03-08T10:18:54.952Z,33.47
2019-03-08T10:21:45.742Z,31.03
2019-03-08T10:24:15.738Z,27.30
2019-03-08T10:26:49.529Z,23.67
2019-03-08T10:29:16.685Z,26.40
2019-03-08T10:31:50.083Z,24.00
2019-03-08T10:34:23.270Z,23.33
2019-03-08T10:37:05.218Z,17.83
2019-03-08T10:39:37.195Z,17.00
2019-03-08T10:42:21.077Z,23.23
2019-03-08T10:44:50.892Z,28.37
2019-03-08T10:47:33.707Z,21.40
2019-03-08T10:50:01.992Z,26.90
2019-03-08T10:52:43.781Z,22.67
2019-03-08T10:55:25.881Z,22.80
2019-03-08T10:57:55.098Z,20.37
2019-03-08T11:00:37.959Z,17.52
2019-03-08T11:03:07.099Z,15.70
2019-03-08T11:05:39.983Z,16.20
2019-03-08T11:08:10.005Z,16.02
2019-03-08T11:10:41.965Z,12.37
2019-03-08T11:13:09.084Z,12.35
2019-03-08T11:15:47.122Z,13.00
2019-03-08T11:18:16.937Z,13.82
2019-03-08T11:20:49.827Z,12.93
2019-03-08T11:23:20.700Z,6.35
2019-03-08T11:26:04.422Z,6.07
2019-03-08T11:28:31.958Z,9.98
2019-03-08T11:31:04.645Z,9.07
2019-03-08T11:33:52.892Z,4.80
2019-03-08T11:36:25.770Z,14.32
2019-03-08T11:38:55.277Z,11.65
2019-03-08T11:41:25.404Z,4.85
2019-03-08T11:43:57.167Z,7.40
2019-03-08T11:46:24.419Z,5.07
2019-03-08T11:49:06.516Z,4.70
2019-03-08T11:51:43.302Z,6.05
2019-03-08T11:54:17.301Z,9.75
2019-03-08T11:59:39.973Z,8.93
2019-03-08T12:02:08.757Z,6.20
2019-03-08T12:04:45.748Z,13.57
2019-03-08T12:07:14.735Z,10.80
2019-03-08T12:09:41.808Z,4.30
2019-03-08T12:12:10.878Z,9.48
2019-03-08T12:14:39.269Z,7.47
2019-03-08T12:17:08.663Z,10.35
2019-03-08T12:19:53.631Z,5.68
2019-03-08T12:22:25.408Z,4.65
2019-03-08T12:24:53.312Z,6.28
2019-03-08T12:27:35.394Z,2.40
2019-03-08T12:30:08.042Z,5.95
2019-03-08T12:32:48.415Z,7.57
2019-03-08T12:35:30.407Z,8.45
2019-03-08T12:38:06.308Z,3.20
2019-03-08T12:40:34.542Z,4.40
2019-03-08T12:43:08.097Z,5.30
2019-03-08T12:45:35.364Z,3.22
2019-03-08T12:48:08.025Z,5.07
2019-03-08T12:50:41.466Z,6.82
2019-03-08T12:53:26.139Z,4.93
2019-03-08T12:55:58.868Z,2.67
2019-03-08T12:58:32.616Z,8.43
2019-03-08T13:01:05.814Z,6.75
2019-03-08T13:03:35.424Z,6.15
2019-03-08T13:06:13.224Z,5.45
2019-03-08T13:08:55.223Z,12.55
2019-03-08T13:11:22.267Z,10.80
2019-03-08T13:14:13.463Z,10.15
2019-03-08T13:17:09.962Z,10.20
2019-03-08T13:19:49.647Z,11.60
2019-03-08T13:22:16.820Z,7.37
2019-03-08T13:24:43.870Z,9.63
2019-03-08T13:27:12.864Z,12.75
2019-03-08T13:29:40.020Z,16.17
2019-03-08T13:32:07.371Z,12.90
2019-03-08T13:34:34.414Z,14.35
2019-03-08T13:37:01.469Z,8.32
2019-03-08T13:39:28.514Z,15.23
2019-03-08T13:41:55.561Z,13.05
2019-03-08T13:44:24.248Z,15.55
2019-03-08T13:46:51.309Z,13.30
2019-03-08T13:49:20.065Z,11.65
2019-03-08T13:51:45.716Z,14.27
2019-03-08T13:54:12.755Z,13.45
2019-03-08T13:56:39.907Z,16.90
2019-03-08T13:59:07.056Z,11.10
2019-03-08T14:01:34.104Z,10.63
2019-03-08T14:04:01.253Z,12.80
2019-03-08T14:06:28.710Z,9.30
2019-03-08T14:08:55.758Z,10.52
2019-03-08T14:11:22.812Z,13.10
2019-03-08T14:13:49.855Z,8.10
2019-03-08T14:16:17.212Z,7.70
2019-03-08T14:18:44.270Z,8.27
2019-03-08T14:21:11.308Z,8.00
2019-03-08T14:23:38.465Z,13.30
2019-03-08T14:26:05.726Z,8.10
2019-03-08T14:28:32.763Z,13.10
2019-03-08T14:31:02.883Z,9.65
2019-03-08T14:33:34.427Z,10.13
2019-03-08T14:35:58.931Z,11.15
2019-03-08T14:38:28.014Z,7.87
2019-03-08T14:41:09.714Z,7.00
2019-03-08T14:43:52.441Z,8.98
2019-03-08T14:46:21.054Z,4.90
2019-03-08T14:48:46.358Z,7.57
2019-03-08T14:51:13.871Z,4.87
2019-03-08T14:53:40.420Z,6.55
2019-03-08T14:56:08.859Z,5.57
2019-03-08T14:58:36.818Z,9.15
2019-03-08T15:01:06.293Z,10.82
2019-03-08T15:03:30.260Z,6.47
2019-03-08T15:05:59.342Z,8.95
2019-03-08T15:08:27.318Z,11.18
2019-03-08T15:10:55.136Z,7.22
2019-03-08T15:13:24.205Z,10.05
2019-03-08T15:15:49.387Z,6.80
2019-03-08T15:18:16.384Z,7.82
2019-03-08T15:20:43.447Z,8.93
2019-03-08T15:23:13.378Z,7.97
2019-03-08T15:25:37.686Z,7.75
2019-03-08T15:28:04.756Z,5.65
2019-03-08T15:30:31.889Z,7.78
2019-03-08T15:32:59.060Z,7.47
2019-03-08T15:35:26.191Z,8.70
2019-03-08T15:37:53.236Z,7.57
2019-03-08T15:40:20.801Z,6.87
2019-03-08T15:42:47.952Z,8.38
2019-03-08T15:45:15.488Z,7.03
2019-03-08T15:47:43.609Z,7.85
2019-03-08T15:50:14.725Z,9.00
2019-03-08T15:52:41.783Z,12.65
2019-03-08T15:55:08.931Z,11.95
2019-03-08T15:57:35.971Z,11.88
2019-03-08T16:00:03.021Z,8.25
2019-03-08T16:02:30.171Z,12.73
2019-03-08T16:04:57.634Z,10.30
2019-03-08T16:07:27.079Z,5.50
2019-03-08T16:09:52.239Z,8.68
2019-03-08T16:12:19.393Z,4.43
2019-03-08T16:14:46.541Z,7.25
2019-03-08T16:17:13.779Z,6.80
2019-03-08T16:19:40.843Z,6.60
2019-03-08T16:22:08.737Z,6.75
2019-03-08T16:24:35.077Z,8.30
2019-03-08T16:27:20.815Z,7.07
2019-03-08T16:30:02.516Z,10.25
2019-03-08T16:32:29.878Z,4.97
2019-03-08T16:34:57.347Z,6.00
2019-03-08T16:37:25.001Z,4.75
2019-03-08T16:40:02.877Z,5.55
2019-03-08T16:42:31.186Z,6.50
2019-03-08T16:45:02.740Z,6.20
2019-03-08T16:47:32.881Z,5.72
2019-03-08T16:50:01.410Z,5.78
2019-03-08T16:52:34.125Z,9.73
2019-03-08T16:55:26.780Z,6.95
2019-03-08T16:58:09.895Z,9.32
2019-03-08T17:00:52.611Z,13.43
2019-03-08T17:05:53.883Z,8.23
2019-03-08T17:08:45.009Z,9.00
2019-03-08T17:11:15.931Z,9.27
2019-03-08T17:14:07.683Z,9.02
2019-03-08T17:17:05.525Z,4.80
2019-03-08T17:19:55.950Z,9.70
2019-03-08T17:22:23.869Z,7.78
2019-03-08T17:25:23.638Z,5.03
2019-03-08T17:28:10.834Z,5.35
2019-03-08T17:31:10.286Z,7.78
2019-03-08T17:34:06.018Z,10.55
2019-03-08T17:36:44.092Z,10.55
2019-03-08T17:39:11.833Z,10.15
2019-03-08T17:41:39.722Z,10.18
2019-03-08T17:44:12.462Z,11.98
2019-03-08T17:46:43.424Z,9.02
2019-03-08T17:49:12.316Z,10.00
2019-03-08T17:51:41.371Z,7.85
2019-03-08T17:54:13.481Z,7.70
2019-03-08T17:56:41.360Z,7.53
2019-03-08T17:59:23.347Z,8.30
2019-03-08T18:02:05.269Z,11.10
2019-03-08T18:04:33.909Z,6.65
2019-03-08T18:07:09.189Z,6.40
2019-03-08T18:09:38.273Z,11.20
2019-03-08T18:12:15.966Z,6.13
2019-03-08T18:14:51.513Z,10.50
2019-03-08T18:17:21.328Z,9.07
2019-03-08T18:19:54.930Z,6.20
2019-03-08T18:22:24.842Z,5.23
2019-03-08T18:24:53.803Z,12.70
2019-03-08T18:27:45.669Z,8.40
2019-03-08T18:30:20.269Z,8.80
2019-03-08T18:32:49.188Z,7.87
2019-03-08T18:35:18.183Z,14.00
2019-03-08T18:38:02.856Z,10.30
2019-03-08T18:40:32.576Z,5.30
2019-03-08T18:43:15.122Z,7.57
2019-03-08T18:45:57.898Z,8.53
2019-03-08T18:48:31.659Z,10.43
2019-03-08T18:51:21.937Z,11.30
2019-03-08T18:54:10.033Z,9.20
2019-03-08T18:56:38.817Z,11.93
2019-03-08T18:59:21.941Z,13.10
2019-03-08T19:02:04.986Z,10.70
2019-03-08T19:04:37.972Z,10.43
2019-03-08T19:07:09.887Z,10.67
2019-03-08T19:09:37.885Z,23.80
2019-03-08T19:12:09.029Z,10.23
2019-03-08T19:14:56.866Z,9.80
2019-03-08T19:17:29.444Z,12.63
2019-03-08T19:19:56.595Z,13.60
2019-03-08T19:22:29.088Z,6.77
2019-03-08T19:25:11.891Z,9.17
2019-03-08T19:27:39.860Z,12.93
2019-03-08T19:30:08.957Z,12.37
2019-03-08T19:32:41.362Z,9.37
2019-03-08T19:35:08.480Z,9.57
2019-03-08T19:37:52.442Z,12.07
2019-03-08T19:40:35.303Z,10.03
2019-03-08T19:43:08.235Z,7.83
2019-03-08T19:45:51.107Z,14.80
2019-03-08T19:48:24.141Z,29.37
2019-03-08T19:51:08.209Z,39.20
2019-03-08T19:53:41.290Z,7.27
2019-03-08T19:56:10.681Z,9.03
2019-03-08T19:58:51.657Z,13.33
2019-03-08T20:01:25.090Z,13.03
2019-03-08T20:03:53.024Z,27.83
2019-03-08T20:06:27.658Z,10.77
2019-03-08T20:09:13.824Z,13.17
2019-03-08T20:12:00.687Z,10.07
2019-03-08T20:14:29.654Z,12.63
2019-03-08T20:17:14.157Z,12.07
2019-03-08T20:19:46.996Z,17.13
2019-03-08T20:22:24.494Z,9.00
2019-03-08T20:24:55.015Z,7.97
2019-03-08T20:27:32.104Z,10.23
2019-03-08T20:30:05.399Z,5.83
2019-03-08T20:32:47.603Z,9.80
2019-03-08T20:35:20.394Z,17.13
2019-03-08T20:38:02.294Z,10.53
2019-03-08T20:40:36.147Z,9.20
2019-03-08T20:43:03.364Z,8.93
2019-03-08T20:45:36.230Z,10.63
2019-03-08T20:48:03.380Z,13.13
2019-03-08T20:50:32.174Z,10.97
2019-03-08T20:52:59.220Z,13.27
2019-03-08T20:55:26.265Z,33.30
2019-03-08T20:57:53.265Z,8.00
2019-03-08T21:00:20.263Z,15.13
2019-03-08T21:02:47.317Z,10.23
2019-03-08T21:05:14.466Z,10.77
2019-03-08T21:07:41.618Z,8.63
2019-03-08T21:10:09.479Z,9.47
2019-03-08T21:12:36.631Z,10.77
2019-03-08T21:15:03.965Z,12.50
2019-03-08T21:17:30.931Z,11.33
2019-03-08T21:19:58.186Z,12.37
2019-03-08T21:22:25.237Z,11.30
2019-03-08T21:24:52.290Z,9.33
2019-03-08T21:27:19.331Z,11.80
2019-03-08T21:29:46.486Z,9.73
2019-03-08T21:32:13.533Z,7.23
2019-03-08T21:34:42.736Z,13.47
2019-03-08T21:37:09.778Z,8.27
2019-03-08T21:39:36.825Z,13.93
2019-03-08T21:42:03.884Z,9.27
2019-03-08T21:44:31.031Z,9.77
2019-03-08T21:46:58.074Z,11.93
2019-03-08T21:49:25.185Z,14.07
2019-03-08T21:51:53.713Z,14.93
2019-03-08T21:54:20.761Z,11.47
2019-03-08T21:56:47.910Z,10.37
2019-03-08T21:59:17.209Z,10.67
2019-03-08T22:01:44.567Z,10.57
2019-03-08T22:04:13.251Z,8.03
2019-03-08T22:06:40.306Z,12.70
2019-03-08T22:09:26.201Z,13.77
2019-03-08T22:11:53.239Z,13.63
2019-03-08T22:14:21.312Z,13.70
2019-03-08T22:16:48.360Z,10.93
2019-03-08T22:19:15.722Z,15.60
2019-03-08T22:21:42.771Z,10.43
2019-03-08T22:24:13.423Z,11.87
2019-03-08T22:26:36.964Z,13.37
2019-03-08T22:29:04.018Z,11.03
2019-03-08T22:31:31.008Z,12.20
2019-03-08T22:33:58.011Z,12.40
2019-03-08T22:36:25.055Z,14.77
2019-03-08T22:38:52.104Z,15.67
2019-03-08T22:41:19.157Z,12.80
2019-03-08T22:43:46.201Z,12.73
2019-03-08T22:46:13.248Z,11.07
2019-03-08T22:48:41.734Z,10.97
2019-03-08T22:51:07.554Z,8.70
2019-03-08T22:53:34.704Z,11.83
2019-03-08T22:56:01.869Z,14.83
2019-03-08T22:58:28.906Z,12.83
2019-03-08T23:01:05.686Z,10.67
2019-03-08T23:03:33.136Z,18.27
2019-03-08T23:06:00.142Z,12.30
2019-03-08T23:08:27.346Z,15.97
2019-03-08T23:10:54.336Z,11.90
2019-03-08T23:13:21.433Z,15.97
2019-03-08T23:15:48.487Z,13.03
2019-03-08T23:18:15.480Z,16.17
2019-03-08T23:20:42.578Z,13.37
2019-03-08T23:23:09.729Z,11.57
2019-03-08T23:25:36.783Z,15.10
2019-03-08T23:28:09.771Z,15.90
2019-03-08T23:30:36.815Z,10.83
2019-03-08T23:33:03.863Z,16.37
2019-03-08T23:35:30.921Z,11.10
2019-03-08T23:37:57.962Z,15.97
2019-03-08T23:40:25.008Z,13.40
2019-03-08T23:42:52.065Z,12.50
2019-03-08T23:45:19.107Z,13.27
2019-03-08T23:47:46.258Z,12.40
2019-03-08T23:50:13.307Z,14.60
2019-03-08T23:52:40.457Z,16.03
2019-03-08T23:55:07.511Z,14.07
2019-03-08T23:57:34.661Z,19.57
